Time;durP1;ratioP1;P1;durP2;ratioP2;P2;SDS_P1;SDS_P2;PMS_P1;PMS_P2;Temp;Humidity;BMP_temperature;BMP_pressure;BME280_temperature;BME280_humidity;BME280_pressure;Samples;Min_cycle;Max_cycle;Signal;HPM_P1;HPM_P2
2022/03/21 00:01:02;;;;;;;19.60;15.63;;;7.70;99.90;;;;;;5074915;28;20208;-67
2022/03/21 00:03:29;;;;;;;21.67;16.60;;;7.70;99.90;;;;;;5074563;28;20265;-67
2022/03/21 00:05:57;;;;;;;16.42;14.50;;;7.60;99.90;;;;;;5074780;28;20301;-67
2022/03/21 00:08:24;;;;;;;19.92;15.65;;;7.60;99.90;;;;;;5074493;28;20200;-68
2022/03/21 00:10:53;;;;;;;20.67;15.90;;;7.60;99.90;;;;;;5074614;28;20204;-67
2022/03/21 00:13:19;;;;;;;26.45;17.75;;;7.40;99.90;;;;;;5074541;28;20210;-67
2022/03/21 00:15:47;;;;;;;24.77;17.17;;;7.40;99.90;;;;;;5074669;28;20212;-67
2022/03/21 00:18:14;;;;;;;20.58;16.63;;;7.40;99.90;;;;;;5074889;28;20278;-66
2022/03/21 00:20:45;;;;;;;19.63;15.45;;;7.30;99.90;;;;;;5074900;28;20211;-66
2022/03/21 00:23:12;;;;;;;23.90;16.50;;;7.30;99.90;;;;;;5074295;28;20625;-67
2022/03/21 00:25:39;;;;;;;20.75;17.75;;;7.20;99.90;;;;;;5074440;28;20551;-66
2022/03/21 00:28:07;;;;;;;26.45;17.23;;;7.20;99.90;;;;;;5074610;28;20200;-67
2022/03/21 00:30:36;;;;;;;20.27;16.10;;;7.20;99.90;;;;;;5074766;28;20208;-67
2022/03/21 00:33:04;;;;;;;20.00;15.75;;;7.10;99.90;;;;;;5074221;28;20211;-67
2022/03/21 00:35:30;;;;;;;21.67;16.55;;;7.00;99.90;;;;;;5073840;28;20692;-66
2022/03/21 00:37:58;;;;;;;20.33;16.65;;;7.00;99.90;;;;;;5074051;28;20616;-66
2022/03/21 00:40:24;;;;;;;28.13;17.67;;;7.00;99.90;;;;;;5074081;28;20204;-66
2022/03/21 00:42:51;;;;;;;24.75;17.08;;;6.90;99.90;;;;;;5072846;28;20627;-67
2022/03/21 00:45:22;;;;;;;28.83;19.48;;;6.90;99.90;;;;;;5074170;28;20195;-66
2022/03/21 00:47:49;;;;;;;21.77;16.13;;;6.80;99.90;;;;;;5074145;28;20255;-66
2022/03/21 00:50:17;;;;;;;21.92;17.45;;;6.80;99.90;;;;;;5074070;28;20264;-67
2022/03/21 00:52:49;;;;;;;21.58;17.30;;;6.50;99.90;;;;;;5073956;28;20203;-66
2022/03/21 00:55:17;;;;;;;25.38;17.73;;;6.40;99.90;;;;;;5073611;28;20192;-66
2022/03/21 00:57:44;;;;;;;24.65;17.63;;;6.30;99.90;;;;;;5073400;28;20611;-66
2022/03/21 01:00:22;;;;;;;23.40;18.35;;;6.20;99.90;;;;;;5073823;28;20195;-67
2022/03/21 01:02:48;;;;;;;25.80;18.65;;;6.00;99.90;;;;;;5073534;28;20547;-66
2022/03/21 01:05:15;;;;;;;22.38;16.80;;;6.00;99.90;;;;;;5074046;28;20196;-66
2022/03/21 01:07:42;;;;;;;21.67;17.73;;;6.00;99.90;;;;;;5073931;28;20204;-66
2022/03/21 01:10:13;;;;;;;22.13;17.25;;;6.00;99.90;;;;;;5073527;28;20210;-66
2022/03/21 01:12:43;;;;;;;21.10;17.45;;;5.90;99.90;;;;;;5073594;28;20204;-66
2022/03/21 01:15:13;;;;;;;24.73;18.38;;;5.80;99.90;;;;;;5073434;28;20203;-66
2022/03/21 01:17:42;;;;;;;23.48;18.35;;;5.80;99.90;;;;;;5073542;28;20204;-66
2022/03/21 01:20:09;;;;;;;26.15;18.10;;;5.80;99.90;;;;;;5073443;28;20204;-66
2022/03/21 01:22:35;;;;;;;24.48;17.05;;;5.70;99.90;;;;;;5073265;28;20218;-66
2022/03/21 01:25:02;;;;;;;23.30;16.85;;;5.60;99.90;;;;;;5073000;28;20280;-66
2022/03/21 01:27:29;;;;;;;23.73;17.58;;;5.50;99.90;;;;;;5073223;28;20204;-66
2022/03/21 01:29:56;;;;;;;24.48;17.73;;;5.50;99.90;;;;;;5073131;28;20642;-66
2022/03/21 01:32:22;;;;;;;26.52;19.15;;;5.50;99.90;;;;;;5073398;28;20200;-66
2022/03/21 01:34:49;;;;;;;21.73;16.45;;;5.60;99.90;;;;;;5071920;28;20671;-66
2022/03/21 01:37:15;;;;;;;23.45;18.02;;;5.60;99.90;;;;;;5073255;28;20204;-66
2022/03/21 01:39:42;;;;;;;23.15;17.13;;;5.70;99.90;;;;;;5073224;28;20204;-66
2022/03/21 01:42:08;;;;;;;25.17;17.70;;;5.70;99.90;;;;;;5073266;28;20204;-66
2022/03/21 01:44:34;;;;;;;21.20;16.30;;;5.70;99.90;;;;;;5073195;28;20248;-66
2022/03/21 01:47:01;;;;;;;28.25;17.25;;;5.80;99.90;;;;;;5073339;28;20196;-66
2022/03/21 01:49:28;;;;;;;26.95;17.88;;;5.90;99.90;;;;;;5073245;28;20204;-66
2022/03/21 01:51:54;;;;;;;24.40;17.90;;;5.80;99.90;;;;;;5073412;28;20277;-66
2022/03/21 01:57:07;;;;;;;25.23;18.23;;;5.80;99.90;;;;;;5073591;28;20196;-66
2022/03/21 01:59:34;;;;;;;22.80;16.63;;;5.70;99.90;;;;;;5073249;28;20208;-66
2022/03/21 02:02:00;;;;;;;25.20;17.23;;;5.70;99.90;;;;;;5073304;28;20206;-66
2022/03/21 02:04:27;;;;;;;24.33;16.25;;;5.70;99.90;;;;;;5073208;28;20748;-66
2022/03/21 02:06:54;;;;;;;34.05;17.15;;;5.80;99.90;;;;;;5074215;28;20227;-66
2022/03/21 02:09:20;;;;;;;24.63;16.85;;;5.80;99.90;;;;;;5077229;28;20215;-66
2022/03/21 02:11:47;;;;;;;22.35;16.33;;;5.80;99.90;;;;;;5076888;28;20200;-66
2022/03/21 02:14:14;;;;;;;25.20;16.55;;;5.80;99.90;;;;;;5077218;28;20602;-66
2022/03/21 02:16:40;;;;;;;27.48;16.58;;;5.80;99.90;;;;;;5076890;28;20736;-66
2022/03/21 02:19:17;;;;;;;22.42;17.05;;;5.80;99.90;;;;;;5077206;28;20693;-66
2022/03/21 02:21:48;;;;;;;24.92;16.67;;;5.80;99.90;;;;;;5076799;28;20643;-66
2022/03/21 02:24:25;;;;;;;21.42;17.15;;;5.70;99.90;;;;;;5076689;28;20683;-66
2022/03/21 02:26:54;;;;;;;24.40;17.15;;;5.80;99.90;;;;;;5076831;28;20249;-66
2022/03/21 02:29:24;;;;;;;25.83;17.27;;;5.80;99.90;;;;;;5076244;28;20192;-66
2022/03/21 02:31:52;;;;;;;22.83;16.90;;;5.80;99.90;;;;;;5076411;28;20620;-66
2022/03/21 02:34:20;;;;;;;20.38;15.40;;;5.70;99.90;;;;;;5076580;28;20724;-66
2022/03/21 02:36:46;;;;;;;23.60;16.83;;;5.70;99.90;;;;;;5077067;28;20266;-66
2022/03/21 02:39:13;;;;;;;18.52;15.43;;;5.60;99.90;;;;;;5076787;28;20212;-66
2022/03/21 02:41:39;;;;;;;24.92;16.70;;;5.60;99.90;;;;;;5076370;28;20663;-66
2022/03/21 02:44:06;;;;;;;18.98;15.18;;;5.60;99.90;;;;;;5076688;28;20227;-66
2022/03/21 02:46:33;;;;;;;21.40;15.65;;;5.60;99.90;;;;;;5076199;28;20203;-66
2022/03/21 02:48:59;;;;;;;23.80;17.30;;;5.60;99.90;;;;;;5074950;28;20233;-66
2022/03/21 02:51:27;;;;;;;22.15;16.52;;;5.60;99.90;;;;;;5076383;28;20209;-66
2022/03/21 02:53:54;;;;;;;25.05;17.70;;;5.60;99.90;;;;;;5076798;28;20659;-67
2022/03/21 02:56:21;;;;;;;21.85;16.17;;;5.60;99.90;;;;;;5076135;28;20204;-66
2022/03/21 02:58:48;;;;;;;23.67;17.77;;;5.70;99.90;;;;;;5076524;28;20260;-66
2022/03/21 03:01:17;;;;;;;26.25;16.60;;;5.60;99.90;;;;;;5076651;28;20606;-66
2022/03/21 03:03:44;;;;;;;23.33;17.58;;;5.60;99.90;;;;;;5075969;28;20239;-66
2022/03/21 03:06:11;;;;;;;20.40;16.00;;;5.60;99.90;;;;;;5076248;28;20626;-66
2022/03/21 03:08:40;;;;;;;21.02;16.33;;;5.50;99.90;;;;;;5075763;28;20207;-65
2022/03/21 03:11:06;;;;;;;24.23;16.88;;;5.50;99.90;;;;;;5075771;28;20212;-65
2022/03/21 03:13:33;;;;;;;24.08;19.23;;;5.50;99.90;;;;;;5076185;28;20261;-65
2022/03/21 03:15:59;;;;;;;30.90;20.90;;;5.50;99.90;;;;;;5075832;28;20203;-66
2022/03/21 03:18:26;;;;;;;25.38;18.88;;;5.60;99.90;;;;;;5074493;28;20204;-65
2022/03/21 03:20:54;;;;;;;26.10;19.90;;;5.70;99.90;;;;;;5075946;28;20207;-66
2022/03/21 03:23:23;;;;;;;26.58;18.15;;;5.70;99.90;;;;;;5075728;28;20207;-66
2022/03/21 03:25:57;;;;;;;26.58;17.50;;;5.80;99.90;;;;;;5075908;28;20241;-66
2022/03/21 03:28:25;;;;;;;21.35;15.98;;;5.80;99.90;;;;;;5075510;28;20534;-66
2022/03/21 03:30:51;;;;;;;23.17;17.40;;;5.90;99.90;;;;;;5075731;28;20211;-67
2022/03/21 03:33:18;;;;;;;23.30;16.58;;;6.00;99.90;;;;;;5075306;28;20208;-67
2022/03/21 03:35:44;;;;;;;23.63;18.13;;;6.00;99.90;;;;;;5075285;28;20196;-66
2022/03/21 03:38:11;;;;;;;24.65;17.52;;;6.10;99.90;;;;;;5075735;28;20200;-66
2022/03/21 03:40:37;;;;;;;22.27;16.77;;;6.20;99.90;;;;;;5075695;28;20561;-67
2022/03/21 03:43:04;;;;;;;22.70;16.40;;;6.30;99.90;;;;;;5075656;28;20272;-68
2022/03/21 03:45:30;;;;;;;23.83;16.35;;;6.40;99.90;;;;;;5074954;28;20219;-68
2022/03/21 03:47:58;;;;;;;23.85;16.15;;;6.30;99.90;;;;;;5075543;28;20200;-67
2022/03/21 03:50:24;;;;;;;24.58;16.25;;;6.40;99.90;;;;;;5075208;28;20196;-67
2022/03/21 03:52:51;;;;;;;24.70;17.45;;;6.30;99.90;;;;;;5075065;28;20530;-66
2022/03/21 03:55:17;;;;;;;22.33;17.17;;;6.30;99.90;;;;;;5075193;28;20204;-68
2022/03/21 03:57:47;;;;;;;22.40;17.10;;;6.30;99.90;;;;;;5074895;28;20211;-67
2022/03/21 04:00:16;;;;;;;22.58;16.70;;;6.40;99.90;;;;;;5074817;28;20204;-67
2022/03/21 04:05:28;;;;;;;20.17;16.40;;;6.30;99.90;;;;;;5075135;28;20587;-67
2022/03/21 04:07:55;;;;;;;21.60;16.60;;;6.20;99.90;;;;;;5075398;28;20192;-66
2022/03/21 04:10:22;;;;;;;24.48;17.45;;;6.30;99.90;;;;;;5074739;28;20258;-65
2022/03/21 04:12:49;;;;;;;24.63;17.63;;;6.20;99.90;;;;;;5074963;28;20208;-68
2022/03/21 04:15:17;;;;;;;24.05;16.63;;;6.30;99.90;;;;;;5074966;28;20204;-68
2022/03/21 04:17:45;;;;;;;22.17;16.45;;;6.40;99.90;;;;;;5074624;28;20208;-67
2022/03/21 04:20:12;;;;;;;26.60;17.00;;;6.40;99.90;;;;;;5074541;28;20271;-68
2022/03/21 04:22:39;;;;;;;19.85;15.50;;;6.50;99.90;;;;;;5074986;28;20233;-67
2022/03/21 04:25:09;;;;;;;24.60;18.17;;;6.60;99.90;;;;;;5074320;28;20289;-67
2022/03/21 04:27:37;;;;;;;23.60;18.33;;;6.60;99.90;;;;;;5074484;28;20200;-68
2022/03/21 04:30:05;;;;;;;26.17;17.92;;;6.60;99.90;;;;;;5072990;28;20595;-67
2022/03/21 04:32:32;;;;;;;24.15;18.42;;;6.50;99.90;;;;;;5073971;28;20206;-66
2022/03/21 04:34:58;;;;;;;24.77;18.40;;;6.50;99.90;;;;;;5074152;28;20611;-66
2022/03/21 04:37:25;;;;;;;22.45;16.27;;;6.50;99.90;;;;;;5074435;28;20207;-68
2022/03/21 04:39:51;;;;;;;25.02;16.90;;;6.50;99.90;;;;;;5074321;28;20253;-65
2022/03/21 04:42:18;;;;;;;20.70;16.20;;;6.50;99.90;;;;;;5074171;28;20203;-65
2022/03/21 04:44:46;;;;;;;22.58;15.82;;;6.50;99.90;;;;;;5074164;28;20216;-65
2022/03/21 04:47:13;;;;;;;20.15;16.20;;;6.50;99.90;;;;;;5074254;28;20196;-65
2022/03/21 04:49:39;;;;;;;23.17;16.75;;;6.40;99.90;;;;;;5074270;28;20204;-65
2022/03/21 04:52:06;;;;;;;21.05;15.48;;;6.40;99.90;;;;;;5073917;28;20200;-65
2022/03/21 04:54:33;;;;;;;21.75;16.45;;;6.40;99.90;;;;;;5074098;28;20288;-65
2022/03/21 04:56:59;;;;;;;20.35;15.85;;;6.40;99.90;;;;;;5074486;28;20204;-65
2022/03/21 04:59:26;;;;;;;19.35;14.73;;;6.40;99.90;;;;;;5073973;28;20196;-65
2022/03/21 05:01:52;;;;;;;18.55;14.85;;;6.40;99.90;;;;;;5073534;28;20521;-65
2022/03/21 05:04:19;;;;;;;17.90;14.73;;;6.40;99.90;;;;;;5073383;28;20644;-65
2022/03/21 05:06:46;;;;;;;19.92;15.63;;;6.40;99.90;;;;;;5073668;28;20219;-66
2022/03/21 05:09:13;;;;;;;21.92;15.05;;;6.40;99.90;;;;;;5072524;28;20286;-65
2022/03/21 05:11:40;;;;;;;19.35;14.13;;;6.30;99.90;;;;;;5073675;28;20559;-66
2022/03/21 05:14:06;;;;;;;21.58;15.57;;;6.30;99.90;;;;;;5073919;28;20208;-65
2022/03/21 05:16:32;;;;;;;23.27;16.17;;;6.30;99.90;;;;;;5074037;28;20207;-65
2022/03/21 05:18:59;;;;;;;19.25;16.38;;;6.20;99.90;;;;;;5073975;28;20196;-65
2022/03/21 05:21:25;;;;;;;19.95;15.68;;;6.20;99.90;;;;;;5073861;28;20204;-66
2022/03/21 05:32:07;;;;;;;18.90;15.57;;;6.20;99.90;;;;;;5073795;28;20195;-67
2022/03/21 05:37:21;;;;;;;17.95;15.32;;;6.30;99.90;;;;;;5073345;28;20193;-66
2022/03/21 05:42:32;;;;;;;19.95;14.50;;;6.40;99.90;;;;;;5072629;28;20192;-66
2022/03/21 05:44:59;;;;;;;21.67;14.50;;;6.50;99.90;;;;;;5073256;28;20268;-66
2022/03/21 05:47:25;;;;;;;19.23;15.55;;;6.50;99.90;;;;;;5073379;28;20268;-66
2022/03/21 05:49:52;;;;;;;21.30;14.30;;;6.50;99.90;;;;;;5073300;28;20204;-66
2022/03/21 05:52:18;;;;;;;22.30;14.77;;;6.50;99.90;;;;;;5073365;28;20195;-66
2022/03/21 05:54:44;;;;;;;17.48;14.48;;;6.60;99.90;;;;;;5072222;28;20207;-67
2022/03/21 05:57:11;;;;;;;18.58;15.00;;;6.70;99.90;;;;;;5073663;28;20245;-67
2022/03/21 06:02:22;;;;;;;16.85;14.15;;;6.70;99.90;;;;;;5073139;28;20188;-67
2022/03/21 06:04:49;;;;;;;18.25;15.00;;;6.80;99.90;;;;;;5073547;28;20232;-66
2022/03/21 06:07:17;;;;;;;21.55;15.18;;;6.80;99.90;;;;;;5073118;28;20281;-66
2022/03/21 06:09:44;;;;;;;17.90;14.85;;;6.90;99.90;;;;;;5073278;28;20246;-67
2022/03/21 06:12:10;;;;;;;16.95;13.55;;;6.90;99.90;;;;;;5072845;28;20200;-67
2022/03/21 06:14:36;;;;;;;19.90;15.00;;;6.90;99.90;;;;;;5072810;28;20207;-66
2022/03/21 06:17:03;;;;;;;17.98;15.00;;;7.00;99.90;;;;;;5072996;28;20200;-66
2022/03/21 06:19:29;;;;;;;21.58;16.42;;;7.00;99.90;;;;;;5073192;28;20551;-67
2022/03/21 06:21:56;;;;;;;18.13;13.90;;;7.10;99.90;;;;;;5073073;28;20199;-66
2022/03/21 06:24:23;;;;;;;20.67;14.00;;;7.10;99.90;;;;;;5072943;28;20280;-66
2022/03/21 06:26:49;;;;;;;20.75;15.15;;;7.20;99.90;;;;;;5072990;28;20196;-67
2022/03/21 06:29:16;;;;;;;19.95;14.73;;;7.30;99.90;;;;;;5072795;28;20640;-67
2022/03/21 06:31:43;;;;;;;23.00;13.95;;;7.40;99.90;;;;;;5072790;28;20596;-66
2022/03/21 06:34:09;;;;;;;21.25;15.98;;;7.50;99.90;;;;;;5072726;28;20208;-66
2022/03/21 06:36:36;;;;;;;20.90;14.40;;;7.50;99.90;;;;;;5072530;28;20702;-66
2022/03/21 06:39:02;;;;;;;20.23;14.50;;;7.50;99.90;;;;;;5072358;28;20743;-72
2022/03/21 06:41:29;;;;;;;16.25;13.68;;;7.50;99.90;;;;;;5072989;28;20204;-73
2022/03/21 06:43:57;;;;;;;21.75;13.85;;;7.50;99.90;;;;;;5072700;28;20199;-67
2022/03/21 06:46:23;;;;;;;21.45;14.30;;;7.50;99.90;;;;;;5070982;28;20196;-67
2022/03/21 06:48:50;;;;;;;29.77;14.55;;;7.50;99.90;;;;;;5072518;28;20203;-67
2022/03/21 06:51:16;;;;;;;21.35;13.57;;;7.60;99.90;;;;;;5072602;28;20208;-67
2022/03/21 06:53:43;;;;;;;20.33;13.32;;;7.70;99.90;;;;;;5074279;28;20200;-66
2022/03/21 06:56:09;;;;;;;19.45;13.35;;;7.70;99.90;;;;;;5076133;28;20211;-67
2022/03/21 06:58:35;;;;;;;27.63;14.48;;;7.80;99.90;;;;;;5075850;28;20208;-67
2022/03/21 07:01:02;;;;;;;15.90;13.23;;;7.80;99.90;;;;;;5076158;28;20204;-68
2022/03/21 07:03:28;;;;;;;14.70;12.15;;;7.90;99.90;;;;;;5075668;28;20591;-67
2022/03/21 07:05:55;;;;;;;18.55;13.50;;;7.80;99.90;;;;;;5075822;28;20709;-67
2022/03/21 07:08:21;;;;;;;16.67;12.90;;;7.90;99.90;;;;;;5075693;28;20659;-67
2022/03/21 07:10:48;;;;;;;15.60;12.38;;;7.90;99.90;;;;;;5076066;28;20566;-67
2022/03/21 07:13:15;;;;;;;16.23;12.60;;;7.80;99.90;;;;;;5075448;28;20200;-67
2022/03/21 07:15:42;;;;;;;21.27;13.63;;;7.80;99.90;;;;;;5075996;28;20204;-66
2022/03/21 07:18:09;;;;;;;18.38;14.23;;;7.80;99.90;;;;;;5075495;28;20218;-66
2022/03/21 07:20:37;;;;;;;16.08;12.38;;;7.90;99.90;;;;;;5075782;28;20200;-68
2022/03/21 07:23:03;;;;;;;16.70;13.00;;;8.00;99.90;;;;;;5075714;28;20230;-68
2022/03/21 07:25:30;;;;;;;15.82;12.65;;;8.10;99.90;;;;;;5075898;28;20220;-68
2022/03/21 07:27:57;;;;;;;15.15;11.68;;;8.20;99.90;;;;;;5075750;28;20219;-67
2022/03/21 07:30:23;;;;;;;14.48;12.25;;;8.30;99.90;;;;;;5076012;28;20192;-67
2022/03/21 07:32:50;;;;;;;16.52;12.85;;;8.40;99.90;;;;;;5075854;28;20202;-68
2022/03/21 07:35:16;;;;;;;24.63;14.23;;;8.40;99.90;;;;;;5074653;28;20328;-67
2022/03/21 07:37:50;;;;;;;21.08;13.45;;;8.50;99.90;;;;;;5075608;28;20195;-67
2022/03/21 07:40:17;;;;;;;16.73;12.88;;;8.50;99.90;;;;;;5074378;28;20241;-66
2022/03/21 07:42:46;;;;;;;14.80;13.07;;;8.60;99.90;;;;;;5074179;28;20214;-67
2022/03/21 07:48:00;;;;;;;17.27;12.75;;;8.60;99.90;;;;;;5075783;28;20195;-66
2022/03/21 07:50:28;;;;;;;15.75;12.63;;;8.80;99.90;;;;;;5075321;28;20534;-66
2022/03/21 07:52:56;;;;;;;16.92;13.38;;;8.90;99.90;;;;;;5075276;28;20203;-66
2022/03/21 07:55:23;;;;;;;17.35;12.52;;;8.90;99.90;;;;;;5075253;28;20200;-67
2022/03/21 07:57:50;;;;;;;17.05;12.70;;;8.80;99.90;;;;;;5074982;28;20204;-66
2022/03/21 08:00:16;;;;;;;14.90;11.90;;;9.00;99.90;;;;;;5075079;28;20200;-67
2022/03/21 08:02:43;;;;;;;20.40;14.07;;;9.10;99.90;;;;;;5075052;28;20208;-67
2022/03/21 08:05:10;;;;;;;15.65;12.10;;;9.20;99.90;;;;;;5073744;28;20243;-67
2022/03/21 08:07:36;;;;;;;14.98;13.38;;;9.30;99.90;;;;;;5075124;28;20211;-67
2022/03/21 08:10:03;;;;;;;17.65;12.65;;;9.50;99.90;;;;;;5074890;28;20196;-68
2022/03/21 08:12:30;;;;;;;14.40;12.10;;;9.60;99.90;;;;;;5075307;28;20203;-67
2022/03/21 08:14:56;;;;;;;15.73;11.77;;;9.70;99.90;;;;;;5075002;28;20204;-68
2022/03/21 08:17:23;;;;;;;15.60;13.07;;;9.80;99.90;;;;;;5074630;28;20204;-67
2022/03/21 08:19:50;;;;;;;18.17;14.40;;;10.00;99.90;;;;;;5074646;28;20614;-69
2022/03/21 08:22:16;;;;;;;17.23;14.00;;;10.10;99.90;;;;;;5074582;28;20280;-67
2022/03/21 08:24:43;;;;;;;16.30;12.88;;;10.10;99.90;;;;;;5073981;28;20229;-68
2022/03/21 08:27:09;;;;;;;17.42;13.90;;;10.20;99.90;;;;;;5074013;28;20623;-70
2022/03/21 08:29:35;;;;;;;21.27;13.15;;;10.20;99.90;;;;;;5074535;28;20200;-68
2022/03/21 08:32:02;;;;;;;14.32;12.50;;;10.30;99.90;;;;;;5074533;28;20196;-67
2022/03/21 08:34:29;;;;;;;20.80;15.18;;;10.40;99.90;;;;;;5074390;28;20196;-68
2022/03/21 08:36:55;;;;;;;15.32;13.50;;;10.30;99.90;;;;;;5074290;28;20200;-68
2022/03/21 08:39:21;;;;;;;18.92;14.13;;;10.40;99.90;;;;;;5074060;28;20204;-68
2022/03/21 08:41:48;;;;;;;14.95;13.38;;;10.40;99.90;;;;;;5072695;28;20666;-67
2022/03/21 08:44:14;;;;;;;15.95;13.23;;;10.40;99.90;;;;;;5073888;28;20741;-68
2022/03/21 08:46:40;;;;;;;18.90;14.30;;;10.50;99.90;;;;;;5073695;28;20624;-68
2022/03/21 08:49:26;;;;;;;18.50;13.88;;;10.70;99.90;;;;;;5073830;28;20214;-68
2022/03/21 08:51:54;;;;;;;14.60;13.10;;;10.60;99.90;;;;;;5072703;28;20206;-67
2022/03/21 08:54:21;;;;;;;19.08;13.50;;;10.90;99.90;;;;;;5074048;28;20200;-67
2022/03/21 08:56:47;;;;;;;15.93;13.75;;;11.10;99.90;;;;;;5074227;28;20212;-67
2022/03/21 08:59:14;;;;;;;14.93;13.32;;;11.00;99.90;;;;;;5074319;28;20602;-67
2022/03/21 09:01:41;;;;;;;15.73;14.00;;;11.10;99.90;;;;;;5072532;28;20603;-68
2022/03/21 09:04:08;;;;;;;17.70;14.27;;;11.20;99.90;;;;;;5073113;28;20243;-67
2022/03/21 09:06:35;;;;;;;18.77;15.25;;;11.20;99.90;;;;;;5073495;28;20776;-68
2022/03/21 09:09:01;;;;;;;24.48;15.45;;;11.40;99.90;;;;;;5073518;28;20273;-68
2022/03/21 09:11:28;;;;;;;21.83;14.60;;;11.50;99.90;;;;;;5073558;28;20204;-67
2022/03/21 09:13:54;;;;;;;18.80;15.13;;;11.50;99.90;;;;;;5073718;28;20200;-67
2022/03/21 09:16:21;;;;;;;16.70;14.20;;;11.50;99.90;;;;;;5072551;28;20200;-68
2022/03/21 09:18:47;;;;;;;16.08;14.38;;;11.50;99.90;;;;;;5072304;28;20219;-68
2022/03/21 09:21:14;;;;;;;18.02;14.80;;;11.90;99.90;;;;;;5073706;28;20610;-67
2022/03/21 09:23:41;;;;;;;15.40;13.80;;;11.90;99.90;;;;;;5073269;28;20831;-68
2022/03/21 09:26:10;;;;;;;18.98;14.48;;;12.20;99.90;;;;;;5073263;28;20216;-67
2022/03/21 09:28:40;;;;;;;17.80;14.95;;;12.40;99.90;;;;;;5073805;28;20210;-69
2022/03/21 09:31:07;;;;;;;18.50;15.70;;;12.40;99.90;;;;;;5073401;28;20619;-68
2022/03/21 09:33:36;;;;;;;21.17;16.05;;;12.60;99.90;;;;;;5073133;28;20581;-68
2022/03/21 09:36:03;;;;;;;19.63;15.30;;;12.60;99.90;;;;;;5073477;28;20204;-68
2022/03/21 09:38:30;;;;;;;17.00;14.20;;;12.60;99.90;;;;;;5073586;28;20670;-67
2022/03/21 09:40:58;;;;;;;22.20;16.43;;;12.70;99.90;;;;;;5071907;28;20630;-67
2022/03/21 09:43:24;;;;;;;19.53;15.63;;;12.50;99.90;;;;;;5073243;28;20652;-68
2022/03/21 09:45:53;;;;;;;18.33;15.57;;;12.30;99.90;;;;;;5073197;28;20636;-68
2022/03/21 09:48:22;;;;;;;16.70;14.77;;;12.60;99.90;;;;;;5073216;28;20617;-68
2022/03/21 09:50:51;;;;;;;19.42;15.27;;;12.70;99.90;;;;;;5073178;28;20644;-68
2022/03/21 09:53:17;;;;;;;22.65;15.23;;;12.90;99.90;;;;;;5073560;28;20207;-68
2022/03/21 09:55:45;;;;;;;20.15;15.55;;;13.00;99.90;;;;;;5073211;28;20234;-67
2022/03/21 09:58:12;;;;;;;19.85;14.20;;;13.00;99.90;;;;;;5073300;28;20199;-68
2022/03/21 10:00:40;;;;;;;19.48;16.02;;;13.10;99.90;;;;;;5073095;28;20256;-67
2022/03/21 10:03:07;;;;;;;22.42;15.43;;;13.10;99.90;;;;;;5071787;28;20629;-67
2022/03/21 10:05:38;;;;;;;18.27;15.47;;;13.00;99.90;;;;;;5073020;28;20624;-68
2022/03/21 10:08:19;;;;;;;17.37;14.73;;;13.20;99.90;;;;;;5073014;28;21147;-68
2022/03/21 10:11:03;;;;;;;18.07;14.30;;;13.60;99.90;;;;;;5071495;28;20618;-68
2022/03/21 10:13:35;;;;;;;17.47;14.40;;;13.80;99.90;;;;;;5072987;28;20584;-68
2022/03/21 10:16:11;;;;;;;17.73;14.90;;;13.70;99.90;;;;;;5072814;28;20609;-68
2022/03/21 10:18:56;;;;;;;28.93;15.57;;;13.70;99.90;;;;;;5073123;28;20566;-73
2022/03/21 10:21:26;;;;;;;19.00;15.73;;;14.00;99.90;;;;;;5073375;28;20633;-68
2022/03/21 10:24:06;;;;;;;17.93;15.30;;;13.90;99.90;;;;;;5073381;28;21174;-68
2022/03/21 10:26:44;;;;;;;24.57;16.27;;;14.40;99.90;;;;;;5072974;28;20662;-68
2022/03/21 10:29:12;;;;;;;18.87;15.03;;;14.70;99.90;;;;;;5075843;28;20614;-68
2022/03/21 10:31:50;;;;;;;19.47;15.30;;;14.70;99.90;;;;;;5076696;28;20614;-67
2022/03/21 10:34:19;;;;;;;17.07;15.00;;;14.70;99.90;;;;;;5076401;28;21233;-68
2022/03/21 10:37:09;;;;;;;18.67;16.47;;;14.60;99.90;;;;;;5077028;28;20622;-67
2022/03/21 10:39:38;;;;;;;23.10;16.67;;;14.40;99.90;;;;;;5076454;28;20578;-67
2022/03/21 10:42:07;;;;;;;19.60;15.80;;;14.80;99.90;;;;;;5075937;28;20630;-67
2022/03/21 10:44:35;;;;;;;20.10;15.30;;;15.10;99.90;;;;;;5076020;28;21000;-69
2022/03/21 10:47:04;;;;;;;25.27;14.47;;;15.10;99.90;;;;;;5076547;28;20662;-68
2022/03/21 10:49:41;;;;;;;17.80;14.70;;;15.10;99.90;;;;;;5076529;28;20610;-68
2022/03/21 10:52:08;;;;;;;19.77;15.83;;;14.70;99.90;;;;;;5077955;28;21012;-68
2022/03/21 10:54:48;;;;;;;18.37;15.00;;;15.10;99.90;;;;;;5076441;28;20629;-68
2022/03/21 10:57:32;;;;;;;21.37;16.40;;;14.90;99.90;;;;;;5075916;28;21031;-67
2022/03/21 11:00:21;;;;;;;21.93;15.83;;;15.50;99.90;;;;;;5075828;28;20585;-68
2022/03/21 11:03:00;;;;;;;19.60;15.93;;;15.80;99.90;;;;;;5075604;28;20621;-68
2022/03/21 11:05:32;;;;;;;23.63;16.97;;;15.70;99.90;;;;;;5076163;28;20726;-69
2022/03/21 11:07:58;;;;;;;17.33;14.97;;;15.90;99.90;;;;;;5075886;28;20574;-67
2022/03/21 11:10:26;;;;;;;23.00;15.80;;;16.00;99.90;;;;;;5074394;28;20618;-67
2022/03/21 11:12:57;;;;;;;19.17;15.17;;;16.50;99.90;;;;;;5075734;28;20945;-67
2022/03/21 11:15:26;;;;;;;26.23;17.07;;;17.40;99.90;;;;;;5075531;28;21054;-67
2022/03/21 11:17:53;;;;;;;18.70;16.70;;;17.80;99.90;;;;;;5076115;28;20618;-68
2022/03/21 11:20:19;;;;;;;26.93;17.43;;;17.70;99.90;;;;;;5075875;28;20625;-68
2022/03/21 11:22:46;;;;;;;23.67;15.83;;;17.50;99.90;;;;;;5074257;28;20625;-65
2022/03/21 11:25:16;;;;;;;22.50;17.43;;;17.80;99.90;;;;;;5075340;28;20622;-67
2022/03/21 11:28:20;;;;;;;17.43;15.57;;;18.00;99.90;;;;;;5075559;28;20621;-67
2022/03/21 11:31:04;;;;;;;19.40;16.30;;;18.70;99.90;;;;;;5075309;28;20632;-66
2022/03/21 11:33:39;;;;;;;18.40;16.50;;;19.00;99.90;;;;;;5075279;28;20630;-66
2022/03/21 11:36:08;;;;;;;19.37;17.47;;;19.10;99.90;;;;;;5075115;28;20623;-67
2022/03/21 11:38:47;;;;;;;18.50;16.23;;;18.70;99.90;;;;;;5075022;28;20625;-66
2022/03/21 11:41:22;;;;;;;19.00;16.27;;;18.50;99.90;;;;;;5074578;28;20682;-66
2022/03/21 11:44:03;;;;;;;19.90;16.10;;;18.70;99.90;;;;;;5075122;28;20614;-66
2022/03/21 11:46:32;;;;;;;17.60;15.67;;;19.40;99.90;;;;;;5075152;28;20638;-67
2022/03/21 11:49:04;;;;;;;20.17;17.57;;;20.20;99.90;;;;;;5075455;28;20622;-66
2022/03/21 11:51:44;;;;;;;18.70;16.83;;;20.30;99.90;;;;;;5074731;28;20983;-66
2022/03/21 11:54:34;;;;;;;17.37;15.67;;;19.90;99.90;;;;;;5074768;28;20617;-67
2022/03/21 11:57:07;;;;;;;17.57;15.43;;;20.40;99.90;;;;;;5074847;28;20641;-67
2022/03/21 11:59:33;;;;;;;19.20;15.30;;;19.90;99.90;;;;;;5075148;28;20622;-67
2022/03/21 12:02:00;;;;;;;20.17;15.10;;;19.30;99.90;;;;;;5074639;28;20625;-67
2022/03/21 12:04:29;;;;;;;17.50;15.80;;;19.40;99.90;;;;;;5074218;28;20658;-66
2022/03/21 12:07:00;;;;;;;20.40;16.10;;;19.50;99.90;;;;;;5074300;28;20700;-66
2022/03/21 12:09:49;;;;;;;20.57;16.87;;;19.60;99.90;;;;;;5074548;28;20602;-67
2022/03/21 12:12:19;;;;;;;15.67;14.07;;;19.90;99.90;;;;;;5074643;28;20601;-67
2022/03/21 12:14:47;;;;;;;17.93;16.07;;;19.80;99.90;;;;;;5074427;28;20582;-67
2022/03/21 12:17:14;;;;;;;16.93;14.57;;;20.20;99.90;;;;;;5074591;28;20614;-67
2022/03/21 12:19:54;;;;;;;17.73;14.17;;;20.10;99.90;;;;;;5074126;28;20683;-67
2022/03/21 12:22:29;;;;;;;17.17;14.60;;;19.80;99.90;;;;;;5074279;28;20594;-67
2022/03/21 12:24:57;;;;;;;16.80;15.10;;;20.00;99.90;;;;;;5074621;28;20651;-67
2022/03/21 12:27:36;;;;;;;17.33;15.13;;;20.20;99.90;;;;;;5072915;28;20673;-67
2022/03/21 12:30:20;;;;;;;15.47;13.87;;;20.40;99.90;;;;;;5074282;28;20618;-67
2022/03/21 12:32:55;;;;;;;18.83;14.40;;;20.90;99.90;;;;;;5075726;28;20610;-67
2022/03/21 12:35:30;;;;;;;14.63;13.13;;;20.80;99.90;;;;;;5074226;28;20577;-67
2022/03/21 12:38:10;;;;;;;15.97;14.33;;;20.90;99.90;;;;;;5074204;28;21164;-67
2022/03/21 12:40:37;;;;;;;13.53;12.23;;;20.50;99.90;;;;;;5073823;28;20631;-67
2022/03/21 12:43:05;;;;;;;15.00;13.23;;;20.80;99.90;;;;;;5073876;28;20590;-67
2022/03/21 12:45:32;;;;;;;17.13;13.57;;;21.70;99.90;;;;;;5073977;28;20668;-67
2022/03/21 12:48:05;;;;;;;17.10;13.67;;;21.20;99.90;;;;;;5073995;28;20668;-67
2022/03/21 12:50:33;;;;;;;15.17;13.57;;;20.80;99.90;;;;;;5073744;28;20587;-67
2022/03/21 12:53:10;;;;;;;20.20;14.37;;;20.10;99.90;;;;;;5073748;28;21153;-68
2022/03/21 12:55:38;;;;;;;15.00;13.27;;;21.20;99.90;;;;;;5073421;28;21164;-67
2022/03/21 12:58:11;;;;;;;16.10;13.40;;;21.60;99.90;;;;;;5073772;28;21223;-67
2022/03/21 13:00:40;;;;;;;18.27;14.30;;;22.10;99.90;;;;;;5073679;28;20614;-67
2022/03/21 13:03:15;;;;;;;14.13;12.67;;;22.70;99.90;;;;;;5073473;28;20646;-68
2022/03/21 13:11:47;;;;;;;13.13;11.93;;;22.30;99.90;;;;;;5051034;28;20776;-67